Miguel Alves, Brazil
Current Conditions -  °F | °C
As of 12:00 PM on Thursday 23 Oct 2014 (Local Time) from SBTE Reporting Station
Scattered Clouds Scattered Clouds  
Wind Chill: 93°   Ceiling: Unl
Heat Index: 99°   Visibility: 6mi
Dew Point: 70°   Wind: 6mph
Humidity: 46%   Direction: 200°SSW
Pressure: 29.85"   Gusts: NA
Location:  4.17°S, 42.9°W
Report Text: SBTE 231500Z 20005KT 9999 SCT030 34/21 Q1011
Loading
Personal Weather Stations






























Interactive Weather Map New forecast layout! Learn more

10-Day Weather Forecast

Advertisements
Track Severe Weather on mobile